createdAt,value
2018-12-18T00:00:45.097Z,0.00
2018-12-18T00:01:45.133Z,0.00
2018-12-18T00:02:45.078Z,0.00
2018-12-18T00:03:45.062Z,0.00
2018-12-18T00:04:45.052Z,0.00
2018-12-18T00:05:45.044Z,0.00
2018-12-18T00:06:45.046Z,0.00
2018-12-18T00:07:45.068Z,0.00
2018-12-18T00:08:45.011Z,0.00
2018-12-18T00:09:44.997Z,0.00
2018-12-18T00:10:44.988Z,0.00
2018-12-18T00:11:44.977Z,0.00
2018-12-18T00:12:44.969Z,0.00
2018-12-18T00:13:44.982Z,0.00
2018-12-18T00:14:44.947Z,0.00
2018-12-18T00:15:44.942Z,0.00
2018-12-18T00:16:44.927Z,0.00
2018-12-18T00:17:44.912Z,0.00
2018-12-18T00:18:44.919Z,0.00
2018-12-18T00:19:44.893Z,0.00
2018-12-18T00:20:44.887Z,0.00
2018-12-18T00:21:44.869Z,0.00
2018-12-18T00:22:44.860Z,0.00
2018-12-18T00:23:44.869Z,0.00
2018-12-18T00:24:44.837Z,0.00
2018-12-18T00:25:44.831Z,0.00
2018-12-18T00:26:44.819Z,0.00
2018-12-18T00:27:44.811Z,0.00
2018-12-18T00:28:44.817Z,0.00
2018-12-18T00:29:44.780Z,0.00
2018-12-18T00:30:44.772Z,0.00
2018-12-18T00:31:45.039Z,0.00
2018-12-18T00:32:44.750Z,0.00
2018-12-18T00:33:46.118Z,0.00
2018-12-18T00:34:44.736Z,0.00
2018-12-18T00:35:44.755Z,0.00
2018-12-18T00:36:44.781Z,0.00
2018-12-18T00:37:44.702Z,0.00
2018-12-18T00:38:44.710Z,0.00
2018-12-18T00:39:44.678Z,0.00
2018-12-18T00:40:44.668Z,0.00
2018-12-18T00:41:44.671Z,0.00
2018-12-18T00:42:44.643Z,0.00
2018-12-18T00:43:44.631Z,0.00
2018-12-18T00:44:44.642Z,0.00
2018-12-18T00:45:44.614Z,0.00
2018-12-18T00:46:44.602Z,0.00
2018-12-18T00:47:44.590Z,0.00
2018-12-18T00:48:44.604Z,0.00
2018-12-18T00:49:44.599Z,0.00
2018-12-18T00:50:44.556Z,0.00
2018-12-18T00:51:44.545Z,0.00
2018-12-18T00:52:44.537Z,0.00
2018-12-18T00:53:44.540Z,0.00
2018-12-18T00:54:44.528Z,0.00
2018-12-18T00:55:44.499Z,0.00
2018-12-18T00:56:44.487Z,0.00
2018-12-18T00:57:44.484Z,0.00
2018-12-18T00:58:44.487Z,0.00
2018-12-18T00:59:44.461Z,0.00
2018-12-18T01:00:44.449Z,0.00
2018-12-18T01:01:44.433Z,0.00
2018-12-18T01:02:44.446Z,0.00
2018-12-18T01:03:44.432Z,0.00
2018-12-18T01:04:44.402Z,0.00
2018-12-18T01:05:44.419Z,0.00
2018-12-18T01:06:44.383Z,0.00
2018-12-18T01:07:44.372Z,0.00
2018-12-18T01:08:44.381Z,0.00
2018-12-18T01:09:44.355Z,0.00
2018-12-18T01:10:44.341Z,0.00
2018-12-18T01:11:44.330Z,0.00
2018-12-18T01:12:44.321Z,0.00
2018-12-18T01:13:44.305Z,0.00
2018-12-18T01:14:44.318Z,0.00
2018-12-18T01:15:44.283Z,0.00
2018-12-18T01:16:44.270Z,0.00
2018-12-18T01:17:44.283Z,0.00
2018-12-18T01:18:44.258Z,0.00
2018-12-18T01:19:44.263Z,0.00
2018-12-18T01:20:44.257Z,0.00
2018-12-18T01:21:44.222Z,0.00
2018-12-18T01:22:44.239Z,0.00
2018-12-18T01:23:44.236Z,0.00
2018-12-18T01:24:44.190Z,0.00
2018-12-18T01:25:44.177Z,0.00
2018-12-18T01:26:44.166Z,0.00
2018-12-18T01:27:44.156Z,0.00
2018-12-18T01:28:44.144Z,0.00
2018-12-18T01:29:44.157Z,0.00
2018-12-18T01:30:44.142Z,0.00
2018-12-18T01:31:44.116Z,0.00
2018-12-18T01:32:44.103Z,0.00
2018-12-18T01:33:44.089Z,0.00
2018-12-18T01:34:44.082Z,0.00
2018-12-18T01:35:44.094Z,0.00
2018-12-18T01:36:44.055Z,0.00
2018-12-18T01:37:44.053Z,0.00
2018-12-18T01:38:44.039Z,0.00
2018-12-18T01:39:44.030Z,0.00
2018-12-18T01:40:44.014Z,0.00
2018-12-18T01:41:44.029Z,0.00
2018-12-18T01:42:44.002Z,0.00
2018-12-18T01:43:44.013Z,0.00
2018-12-18T01:44:43.976Z,0.00
2018-12-18T01:45:43.957Z,0.00
2018-12-18T01:46:43.951Z,0.00
2018-12-18T01:47:43.939Z,0.00
2018-12-18T01:48:43.929Z,0.00
2018-12-18T01:49:43.948Z,0.00
2018-12-18T01:50:43.934Z,0.00
2018-12-18T01:51:43.907Z,0.00
2018-12-18T01:52:43.890Z,0.00
2018-12-18T01:53:43.874Z,0.00
2018-12-18T01:54:43.867Z,0.00
2018-12-18T01:55:43.877Z,0.00
2018-12-18T01:56:43.854Z,0.00
2018-12-18T01:57:43.838Z,0.00
2018-12-18T01:58:43.830Z,0.00
2018-12-18T01:59:43.816Z,0.00
2018-12-18T02:00:43.821Z,0.00
2018-12-18T02:01:43.793Z,0.00
2018-12-18T02:02:43.783Z,0.00
2018-12-18T02:03:43.791Z,0.00
2018-12-18T02:04:43.761Z,0.00
2018-12-18T02:05:43.744Z,0.00
2018-12-18T02:06:43.737Z,0.00
2018-12-18T02:07:43.729Z,0.00
2018-12-18T02:08:43.743Z,0.00
2018-12-18T02:09:43.709Z,0.00
2018-12-18T02:10:43.698Z,0.00
2018-12-18T02:11:43.681Z,0.00
2018-12-18T02:12:43.676Z,0.00
2018-12-18T02:13:43.663Z,0.00
2018-12-18T02:14:43.672Z,0.00
2018-12-18T02:15:43.675Z,0.00
2018-12-18T02:16:43.636Z,0.00
2018-12-18T02:17:43.619Z,0.00
2018-12-18T02:18:43.623Z,0.00
2018-12-18T02:19:43.614Z,0.00
2018-12-18T02:20:43.588Z,0.00
2018-12-18T02:21:43.587Z,0.00
2018-12-18T02:22:43.568Z,0.00
2018-12-18T02:23:43.576Z,0.00
2018-12-18T02:24:43.553Z,0.00
2018-12-18T02:25:43.528Z,0.00
2018-12-18T02:26:43.521Z,0.00
2018-12-18T02:27:43.513Z,0.00
2018-12-18T02:28:43.503Z,0.00
2018-12-18T02:29:43.506Z,0.00
2018-12-18T02:30:43.478Z,0.00
2018-12-18T02:31:43.466Z,0.00
2018-12-18T02:32:43.457Z,0.00
2018-12-18T02:33:43.474Z,0.00
2018-12-18T02:34:43.440Z,0.00
2018-12-18T02:35:43.426Z,0.00
2018-12-18T02:36:43.423Z,0.00
2018-12-18T02:37:43.405Z,0.00
2018-12-18T02:38:43.413Z,0.00
2018-12-18T02:39:43.384Z,0.00
2018-12-18T02:40:43.368Z,0.00
2018-12-18T02:41:43.371Z,0.00
2018-12-18T02:42:43.349Z,0.00
2018-12-18T02:43:43.363Z,0.00
2018-12-18T02:44:43.324Z,0.00
2018-12-18T02:45:43.321Z,0.00
2018-12-18T02:46:43.312Z,0.00
2018-12-18T02:47:43.296Z,0.00
2018-12-18T02:48:43.296Z,0.00
2018-12-18T02:49:43.294Z,0.00
2018-12-18T02:50:43.264Z,0.00
2018-12-18T02:51:43.266Z,0.00
2018-12-18T02:52:43.261Z,0.00
2018-12-18T02:53:43.231Z,0.00
2018-12-18T02:54:43.217Z,0.00
2018-12-18T02:55:43.231Z,0.00
2018-12-18T02:56:43.198Z,0.00
2018-12-18T02:57:43.191Z,0.00
2018-12-18T02:58:43.188Z,0.00
2018-12-18T02:59:43.183Z,0.00
2018-12-18T03:00:43.155Z,0.00
2018-12-18T03:01:43.147Z,0.00
2018-12-18T03:02:43.137Z,0.00
2018-12-18T03:03:43.143Z,0.00
2018-12-18T03:04:43.130Z,0.00
2018-12-18T03:05:43.100Z,0.00
2018-12-18T03:06:43.086Z,0.00
2018-12-18T03:07:43.073Z,0.00
2018-12-18T03:08:43.090Z,0.00
2018-12-18T03:09:43.058Z,0.00
2018-12-18T03:10:43.058Z,0.00
2018-12-18T03:11:43.038Z,0.00
2018-12-18T03:12:43.033Z,0.00
2018-12-18T03:13:43.011Z,0.00
2018-12-18T03:14:43.024Z,0.00
2018-12-18T03:15:42.997Z,0.00
2018-12-18T03:16:42.982Z,0.00
2018-12-18T03:17:42.970Z,0.00
2018-12-18T03:18:42.953Z,0.00
2018-12-18T03:19:42.955Z,0.00
2018-12-18T03:20:43.153Z,0.00
2018-12-18T03:21:42.926Z,0.00
2018-12-18T03:22:42.922Z,0.00
2018-12-18T03:23:42.925Z,0.00
2018-12-18T03:24:42.899Z,0.00
2018-12-18T03:25:42.887Z,0.00
2018-12-18T03:26:42.876Z,0.00
2018-12-18T03:27:42.858Z,0.00
2018-12-18T03:28:42.867Z,0.00
2018-12-18T03:29:42.840Z,0.00
2018-12-18T03:30:42.859Z,0.00
2018-12-18T03:31:42.821Z,0.00
2018-12-18T03:32:42.808Z,0.00
2018-12-18T03:33:42.849Z,0.00
2018-12-18T03:34:43.680Z,0.00
2018-12-18T03:35:42.803Z,0.00
2018-12-18T03:36:42.774Z,0.00
2018-12-18T03:37:42.753Z,0.00
2018-12-18T03:38:42.743Z,0.00
2018-12-18T03:39:42.736Z,0.00
2018-12-18T03:40:42.748Z,0.00
2018-12-18T03:41:42.727Z,0.00
2018-12-18T03:42:42.706Z,0.00
2018-12-18T03:43:42.695Z,0.00
2018-12-18T03:44:42.683Z,0.00
2018-12-18T03:45:42.691Z,0.00
2018-12-18T03:46:42.659Z,0.00
2018-12-18T03:47:42.680Z,0.00
2018-12-18T03:48:42.641Z,0.00
2018-12-18T03:49:42.629Z,0.00
2018-12-18T03:50:42.618Z,0.00
2018-12-18T03:51:42.607Z,0.00
2018-12-18T03:52:42.596Z,0.00
2018-12-18T03:53:42.605Z,0.00
2018-12-18T03:54:42.578Z,0.00
2018-12-18T03:55:42.592Z,0.00
2018-12-18T03:56:42.556Z,0.00
2018-12-18T03:57:42.544Z,0.00
2018-12-18T03:58:42.530Z,0.00
2018-12-18T03:59:42.521Z,0.00
2018-12-18T04:00:42.512Z,0.00
2018-12-18T04:01:42.524Z,0.00
2018-12-18T04:02:42.497Z,0.00
2018-12-18T04:03:42.493Z,0.00
2018-12-18T04:04:42.475Z,0.00
2018-12-18T04:05:42.477Z,0.00
2018-12-18T04:06:42.450Z,0.00
2018-12-18T04:07:42.444Z,0.00
2018-12-18T04:08:42.427Z,0.00
2018-12-18T04:09:42.417Z,0.00
2018-12-18T04:10:42.417Z,0.00
2018-12-18T04:11:42.419Z,0.00
2018-12-18T04:12:42.381Z,0.00
2018-12-18T04:13:42.377Z,0.00
2018-12-18T04:14:42.369Z,0.00
2018-12-18T04:15:42.354Z,0.00
2018-12-18T04:16:42.342Z,0.00
2018-12-18T04:17:42.346Z,0.00
2018-12-18T04:18:42.346Z,0.00
2018-12-18T04:19:42.324Z,0.00
2018-12-18T04:20:42.330Z,0.00
2018-12-18T04:21:42.287Z,0.00
2018-12-18T04:22:42.280Z,0.00
2018-12-18T04:23:42.272Z,0.00
2018-12-18T04:24:42.253Z,0.00
2018-12-18T04:25:42.271Z,0.00
2018-12-18T04:26:42.241Z,0.00
2018-12-18T04:27:42.236Z,0.00
2018-12-18T04:28:42.234Z,0.00
2018-12-18T04:29:42.199Z,0.00
2018-12-18T04:30:42.190Z,0.00
2018-12-18T04:31:42.194Z,0.00
2018-12-18T04:32:42.166Z,0.00
2018-12-18T04:33:42.180Z,0.00
2018-12-18T04:34:43.091Z,0.00
2018-12-18T04:35:42.140Z,0.00
2018-12-18T04:36:42.150Z,0.00
2018-12-18T04:37:42.118Z,0.00
2018-12-18T04:38:42.108Z,0.00
2018-12-18T04:39:42.094Z,0.00
2018-12-18T04:40:42.089Z,0.00
2018-12-18T04:41:42.073Z,0.00
2018-12-18T04:42:42.118Z,0.00
2018-12-18T04:43:42.068Z,0.00
2018-12-18T04:44:42.049Z,0.00
2018-12-18T04:45:42.039Z,0.00
2018-12-18T04:46:42.022Z,0.00
2018-12-18T04:47:42.011Z,0.00
2018-12-18T04:48:42.023Z,0.00
2018-12-18T04:49:41.988Z,0.00
2018-12-18T04:50:41.975Z,0.00
2018-12-18T04:51:41.986Z,0.00
2018-12-18T04:52:41.962Z,0.00
2018-12-18T04:53:41.958Z,0.00
2018-12-18T04:54:41.946Z,0.00
2018-12-18T04:55:41.921Z,0.00
2018-12-18T04:56:41.948Z,0.00
2018-12-18T04:57:41.902Z,0.00
2018-12-18T04:58:41.893Z,0.00
2018-12-18T04:59:41.879Z,0.00
2018-12-18T05:00:41.870Z,0.00
2018-12-18T05:01:41.887Z,0.00
2018-12-18T05:02:41.845Z,0.00
2018-12-18T05:03:41.835Z,0.00
2018-12-18T05:04:41.822Z,0.00
2018-12-18T05:05:41.816Z,0.00
2018-12-18T05:06:41.831Z,0.00
2018-12-18T05:07:41.797Z,0.00
2018-12-18T05:08:41.777Z,0.00
2018-12-18T05:09:41.772Z,0.00
2018-12-18T05:10:41.778Z,0.00
2018-12-18T05:11:41.751Z,0.00
2018-12-18T05:12:41.765Z,0.00
2018-12-18T05:13:41.722Z,0.00
2018-12-18T05:14:41.715Z,0.00
2018-12-18T05:15:41.704Z,0.00
2018-12-18T05:16:41.727Z,0.00
2018-12-18T05:17:41.688Z,0.00
2018-12-18T05:18:41.691Z,0.00
2018-12-18T05:19:41.663Z,0.00
2018-12-18T05:20:41.656Z,0.00
2018-12-18T05:21:41.663Z,0.00
2018-12-18T05:22:41.628Z,0.00
2018-12-18T05:23:41.631Z,0.00
2018-12-18T05:24:41.615Z,0.00
2018-12-18T05:25:41.600Z,0.00
2018-12-18T05:26:41.586Z,0.00
2018-12-18T05:27:41.595Z,0.00
2018-12-18T05:28:41.566Z,0.00
2018-12-18T05:29:41.560Z,0.00
2018-12-18T05:30:41.546Z,0.00
2018-12-18T05:31:41.556Z,0.00
2018-12-18T05:32:41.525Z,0.00
2018-12-18T05:33:41.553Z,0.00
2018-12-18T05:34:41.504Z,0.00
2018-12-18T05:35:41.489Z,0.00
2018-12-18T05:36:41.478Z,0.00
2018-12-18T05:37:41.476Z,0.00
2018-12-18T05:38:41.482Z,0.00
2018-12-18T05:39:41.455Z,0.00
2018-12-18T05:40:41.434Z,0.00
2018-12-18T05:41:41.431Z,0.00
2018-12-18T05:42:41.429Z,0.00
2018-12-18T05:43:41.438Z,0.00
2018-12-18T05:44:41.398Z,0.00
2018-12-18T05:45:41.379Z,0.00
2018-12-18T05:46:41.380Z,0.00
2018-12-18T05:47:41.362Z,0.00
2018-12-18T05:48:41.368Z,0.00
2018-12-18T05:49:41.347Z,0.00
2018-12-18T05:50:41.331Z,0.00
2018-12-18T05:51:41.322Z,0.00
2018-12-18T05:52:41.330Z,0.00
2018-12-18T05:53:41.313Z,0.00
2018-12-18T05:54:41.294Z,0.00
2018-12-18T05:55:41.285Z,0.00
2018-12-18T05:56:41.275Z,0.00
2018-12-18T05:57:41.259Z,0.00
2018-12-18T05:58:41.266Z,0.00
2018-12-18T05:59:41.232Z,0.00
2018-12-18T06:00:41.221Z,0.00
2018-12-18T06:01:41.223Z,0.00
2018-12-18T06:02:41.202Z,0.00
2018-12-18T06:03:41.197Z,0.00
2018-12-18T06:04:41.198Z,0.00
2018-12-18T06:05:41.164Z,0.00
2018-12-18T06:06:41.157Z,0.00
2018-12-18T06:07:41.163Z,0.00
2018-12-18T06:08:41.134Z,0.00
2018-12-18T06:09:41.129Z,0.00
2018-12-18T06:10:41.117Z,0.00
2018-12-18T06:11:41.104Z,0.00
2018-12-18T06:12:41.110Z,0.00
2018-12-18T06:13:41.084Z,0.00
2018-12-18T06:14:41.070Z,0.00
2018-12-18T06:15:41.064Z,0.00
2018-12-18T06:16:41.054Z,0.00
2018-12-18T06:17:41.035Z,0.00
2018-12-18T06:18:41.045Z,0.00
2018-12-18T06:19:41.016Z,0.00
2018-12-18T06:20:41.002Z,0.00
2018-12-18T06:21:41.001Z,0.00
2018-12-18T06:22:40.984Z,0.00
2018-12-18T06:23:41.004Z,0.00
2018-12-18T06:24:40.966Z,0.00
2018-12-18T06:25:40.952Z,0.00
2018-12-18T06:26:40.939Z,0.00
2018-12-18T06:27:40.933Z,0.00
2018-12-18T06:28:40.944Z,0.00
2018-12-18T06:29:40.905Z,0.00
2018-12-18T06:30:40.911Z,0.00
2018-12-18T06:31:40.884Z,0.00
2018-12-18T06:32:40.876Z,0.00
2018-12-18T06:33:40.888Z,0.00
2018-12-18T06:34:40.854Z,0.00
2018-12-18T06:35:40.845Z,0.00
2018-12-18T06:36:40.835Z,0.00
2018-12-18T06:37:40.819Z,0.00
2018-12-18T06:38:40.840Z,0.00
2018-12-18T06:39:40.799Z,0.00
2018-12-18T06:40:40.787Z,0.00
2018-12-18T06:41:40.782Z,0.00
2018-12-18T06:42:40.769Z,0.00
2018-12-18T06:43:40.776Z,0.00
2018-12-18T06:44:40.743Z,0.00
2018-12-18T06:45:40.742Z,0.00
2018-12-18T06:46:40.727Z,0.00
2018-12-18T06:47:40.752Z,0.00
2018-12-18T06:48:40.732Z,0.00
2018-12-18T06:49:40.699Z,0.00
2018-12-18T06:50:40.691Z,0.00
2018-12-18T06:51:40.676Z,0.00
2018-12-18T06:52:40.658Z,0.00
2018-12-18T06:53:40.677Z,4.00
2018-12-18T06:54:40.642Z,4.00
2018-12-18T06:55:40.637Z,0.00
2018-12-18T06:56:40.624Z,4.00
2018-12-18T06:57:40.611Z,4.00
2018-12-18T06:58:40.660Z,4.00
2018-12-18T06:59:40.613Z,8.00
2018-12-18T07:00:40.591Z,4.00
2018-12-18T07:01:40.565Z,4.00
2018-12-18T07:02:40.559Z,8.00
2018-12-18T07:03:40.567Z,8.00
2018-12-18T07:04:40.533Z,8.00
2018-12-18T07:05:40.536Z,12.00
2018-12-18T07:06:40.517Z,16.00
2018-12-18T07:07:40.506Z,16.00
2018-12-18T07:08:40.521Z,20.00
2018-12-18T07:09:40.509Z,24.00
2018-12-18T07:10:40.468Z,24.00
2018-12-18T07:11:40.459Z,28.00
2018-12-18T07:12:40.458Z,32.00
2018-12-18T07:13:40.443Z,40.00
2018-12-18T07:14:40.448Z,40.00
2018-12-18T07:15:40.476Z,48.00
2018-12-18T07:16:40.429Z,56.00
2018-12-18T07:17:40.423Z,60.00
2018-12-18T07:18:40.390Z,68.00
2018-12-18T07:19:40.379Z,80.00
2018-12-18T07:20:40.380Z,88.00
2018-12-18T07:21:40.357Z,96.00
2018-12-18T07:22:40.349Z,108.00
2018-12-18T07:23:40.355Z,120.00
2018-12-18T07:24:40.338Z,136.00
2018-12-18T07:25:40.314Z,148.00
2018-12-18T07:26:40.302Z,164.00
2018-12-18T07:27:40.293Z,184.00
2018-12-18T07:28:40.284Z,204.00
2018-12-18T07:29:40.321Z,220.00
2018-12-18T07:30:40.280Z,244.00
2018-12-18T07:31:40.291Z,272.00
2018-12-18T07:32:40.241Z,292.00
2018-12-18T07:33:40.234Z,320.00
2018-12-18T07:34:40.242Z,344.00
2018-12-18T07:35:40.207Z,376.00
2018-12-18T07:36:40.200Z,396.00
2018-12-18T07:37:40.187Z,424.00
2018-12-18T07:38:40.192Z,460.00
2018-12-18T07:39:40.163Z,488.00
2018-12-18T07:40:40.204Z,512.00
2018-12-18T07:41:40.139Z,540.00
2018-12-18T07:42:40.137Z,568.00
2018-12-18T07:43:40.162Z,596.00
2018-12-18T07:44:40.166Z,620.00
2018-12-18T07:45:40.106Z,664.00
2018-12-18T07:46:40.096Z,692.00
2018-12-18T07:47:40.077Z,724.00
2018-12-18T07:48:40.090Z,760.00
2018-12-18T07:49:40.063Z,788.00
2018-12-18T07:50:40.054Z,824.00
2018-12-18T07:51:40.042Z,856.00
2018-12-18T07:52:40.035Z,876.00
2018-12-18T07:53:40.011Z,916.00
2018-12-18T07:54:40.051Z,952.00
2018-12-18T07:55:39.992Z,984.00
2018-12-18T07:56:39.977Z,1016.00
2018-12-18T07:57:39.976Z,1056.00
2018-12-18T07:58:39.968Z,1088.00
2018-12-18T07:59:39.974Z,1136.00
2018-12-18T08:00:39.942Z,1176.00
2018-12-18T08:01:39.929Z,1200.00
2018-12-18T08:02:39.921Z,1240.00
2018-12-18T08:03:39.927Z,1280.00
2018-12-18T08:04:39.916Z,1320.00
2018-12-18T08:05:39.885Z,1356.00
2018-12-18T08:06:39.884Z,1376.00
2018-12-18T08:07:39.915Z,1412.00
2018-12-18T08:08:39.848Z,1436.00
2018-12-18T08:09:40.718Z,1468.00
2018-12-18T08:10:39.829Z,1496.00
2018-12-18T08:11:39.818Z,1540.00
2018-12-18T08:12:39.842Z,1576.00
2018-12-18T08:13:39.823Z,1596.00
2018-12-18T08:14:39.807Z,1620.00
2018-12-18T08:15:39.776Z,1652.00
2018-12-18T08:16:39.763Z,1684.00
2018-12-18T08:17:39.757Z,1728.00
2018-12-18T08:18:39.769Z,1756.00
2018-12-18T08:19:39.763Z,1788.00
2018-12-18T08:20:39.721Z,1808.00
2018-12-18T08:21:39.711Z,1832.00
2018-12-18T08:22:39.699Z,1844.00
2018-12-18T08:23:39.771Z,1864.00
2018-12-18T08:24:39.679Z,1876.00
2018-12-18T08:25:39.784Z,1884.00
2018-12-18T08:26:39.653Z,1880.00
2018-12-18T08:27:39.644Z,1860.00
2018-12-18T08:28:39.643Z,1880.00
2018-12-18T08:29:39.625Z,1900.00
2018-12-18T08:30:39.630Z,1936.00
2018-12-18T08:31:39.601Z,1956.00
2018-12-18T08:32:39.664Z,1972.00
2018-12-18T08:33:39.594Z,2024.00
2018-12-18T08:34:39.606Z,2076.00
2018-12-18T08:35:39.579Z,2132.00
2018-12-18T08:36:39.550Z,2200.00
2018-12-18T08:37:39.531Z,2252.00
2018-12-18T08:38:39.527Z,2300.00
2018-12-18T08:39:39.512Z,2348.00
2018-12-18T08:40:39.535Z,2380.00
2018-12-18T08:41:39.511Z,2392.00
2018-12-18T08:42:39.487Z,2420.00
2018-12-18T08:43:39.469Z,2456.00
2018-12-18T08:44:39.458Z,2468.00
2018-12-18T08:45:39.477Z,2440.00
2018-12-18T08:46:39.439Z,2456.00
2018-12-18T08:47:39.428Z,2476.00
2018-12-18T08:48:39.490Z,2520.00
2018-12-18T08:49:39.404Z,2564.00
2018-12-18T08:50:39.421Z,2640.00
2018-12-18T08:51:39.386Z,2684.00
2018-12-18T08:52:39.373Z,2736.00
2018-12-18T08:53:39.372Z,2784.00
2018-12-18T08:54:39.370Z,2828.00
2018-12-18T08:55:39.337Z,2832.00
2018-12-18T08:56:39.343Z,2868.00
2018-12-18T08:57:39.334Z,2892.00
2018-12-18T08:58:39.312Z,2896.00
2018-12-18T08:59:39.303Z,2912.00
2018-12-18T09:00:39.306Z,2884.00
2018-12-18T09:01:39.280Z,2892.00
2018-12-18T09:02:39.259Z,2888.00
2018-12-18T09:03:39.252Z,2888.00
2018-12-18T09:04:39.242Z,2884.00
2018-12-18T09:05:43.132Z,2884.00
2018-12-18T09:06:39.240Z,2980.00
2018-12-18T09:07:39.255Z,3044.00
2018-12-18T09:08:39.193Z,3000.00
2018-12-18T09:09:39.220Z,3112.00
2018-12-18T09:10:39.963Z,3212.00
2018-12-18T09:11:39.174Z,3360.00
2018-12-18T09:12:39.157Z,4460.00
2018-12-18T09:13:39.156Z,4316.00
2018-12-18T09:14:39.135Z,4092.00
2018-12-18T09:15:39.150Z,3400.00
2018-12-18T09:16:39.142Z,3948.00
2018-12-18T09:17:39.104Z,3456.00
2018-12-18T09:18:39.110Z,3364.00
2018-12-18T09:19:39.084Z,3328.00
2018-12-18T09:20:39.104Z,3348.00
2018-12-18T09:21:39.067Z,3480.00
2018-12-18T09:22:39.047Z,3436.00
2018-12-18T09:23:39.039Z,3396.00
2018-12-18T09:24:39.026Z,3452.00
2018-12-18T09:25:39.013Z,3476.00
2018-12-18T09:26:39.020Z,3508.00
2018-12-18T09:27:38.992Z,3560.00
2018-12-18T09:28:38.979Z,3512.00
2018-12-18T09:29:39.004Z,3700.00
2018-12-18T09:30:42.509Z,3772.00
2018-12-18T09:31:38.979Z,3788.00
2018-12-18T09:32:38.954Z,3828.00
2018-12-18T09:33:38.931Z,3840.00
2018-12-18T09:34:38.920Z,3836.00
2018-12-18T09:35:38.904Z,3876.00
2018-12-18T09:36:38.919Z,3932.00
2018-12-18T09:37:38.916Z,3952.00
2018-12-18T09:38:38.877Z,3968.00
2018-12-18T09:39:38.864Z,3912.00
2018-12-18T09:40:38.854Z,3888.00
2018-12-18T09:41:38.847Z,3968.00
2018-12-18T09:42:38.835Z,3980.00
2018-12-18T09:43:38.843Z,4052.00
2018-12-18T09:44:38.829Z,4092.00
2018-12-18T09:45:38.796Z,4448.00
2018-12-18T09:46:38.806Z,4284.00
2018-12-18T09:47:38.775Z,4164.00
2018-12-18T09:48:38.765Z,3776.00
2018-12-18T09:49:38.776Z,3700.00
2018-12-18T09:50:38.748Z,3596.00
2018-12-18T09:51:38.753Z,3676.00
2018-12-18T09:52:38.726Z,3636.00
2018-12-18T09:53:38.708Z,3544.00
2018-12-18T09:54:38.716Z,3504.00
2018-12-18T09:55:38.689Z,3628.00
2018-12-18T09:56:38.704Z,3664.00
2018-12-18T09:57:38.697Z,3732.00
2018-12-18T09:58:38.685Z,3716.00
2018-12-18T09:59:38.664Z,3644.00
2018-12-18T10:00:38.631Z,3640.00
2018-12-18T10:01:38.628Z,3716.00
2018-12-18T10:02:38.615Z,3748.00
2018-12-18T10:03:38.631Z,3760.00
2018-12-18T10:04:38.595Z,3760.00
2018-12-18T10:05:38.577Z,3784.00
2018-12-18T10:06:38.570Z,3820.00
2018-12-18T10:07:38.565Z,3832.00
2018-12-18T10:08:38.547Z,3908.00
2018-12-18T10:09:38.562Z,3904.00
2018-12-18T10:10:38.528Z,3972.00
2018-12-18T10:11:38.522Z,4060.00
2018-12-18T10:12:38.518Z,4096.00
2018-12-18T10:13:38.496Z,4140.00
2018-12-18T10:14:38.484Z,4216.00
2018-12-18T10:15:38.472Z,4232.00
2018-12-18T10:16:38.463Z,4236.00
2018-12-18T10:17:38.465Z,4252.00
2018-12-18T10:18:38.462Z,4344.00
2018-12-18T10:19:38.483Z,4524.00
2018-12-18T10:20:38.416Z,4636.00
2018-12-18T10:21:38.412Z,4708.00
2018-12-18T10:22:38.396Z,4756.00
2018-12-18T10:23:38.387Z,4760.00
2018-12-18T10:24:38.377Z,4792.00
2018-12-18T10:25:38.381Z,4780.00
2018-12-18T10:26:38.350Z,4720.00
2018-12-18T10:27:38.366Z,4572.00
2018-12-18T10:28:38.333Z,4384.00
2018-12-18T10:29:38.319Z,4308.00
2018-12-18T10:30:38.306Z,4228.00
2018-12-18T10:31:38.299Z,4232.00
2018-12-18T10:32:38.283Z,4188.00
2018-12-18T10:33:38.297Z,4084.00
2018-12-18T10:34:38.266Z,4060.00
2018-12-18T10:35:38.257Z,4104.00
2018-12-18T10:36:38.247Z,4128.00
2018-12-18T10:37:38.246Z,4132.00
2018-12-18T10:38:38.219Z,3908.00
2018-12-18T10:39:38.246Z,4268.00
2018-12-18T10:40:38.196Z,4196.00
2018-12-18T10:41:38.192Z,3828.00
2018-12-18T10:42:38.204Z,4272.00
2018-12-18T10:43:38.166Z,4548.00
2018-12-18T10:44:38.152Z,6796.00
2018-12-18T10:45:38.154Z,6600.00
2018-12-18T10:46:38.135Z,6328.00
2018-12-18T10:47:38.123Z,6544.00
2018-12-18T10:48:38.138Z,9268.00
2018-12-18T10:49:38.098Z,8708.00
2018-12-18T10:50:38.090Z,4552.00
2018-12-18T10:51:38.078Z,3772.00
2018-12-18T10:52:38.064Z,4756.00
2018-12-18T10:53:38.061Z,6548.00
2018-12-18T10:54:38.065Z,7864.00
2018-12-18T10:55:38.035Z,6848.00
2018-12-18T10:56:38.028Z,8692.00
2018-12-18T10:57:38.008Z,7096.00
2018-12-18T10:58:38.000Z,5268.00
2018-12-18T10:59:38.016Z,7440.00
2018-12-18T11:00:37.984Z,9524.00
2018-12-18T11:01:37.965Z,6300.00
2018-12-18T11:02:37.967Z,6232.00
2018-12-18T11:03:37.967Z,4752.00
2018-12-18T11:04:37.936Z,4272.00
2018-12-18T11:05:37.929Z,4280.00
2018-12-18T11:06:37.915Z,4272.00
2018-12-18T11:07:37.956Z,4324.00
2018-12-18T11:08:37.914Z,4428.00
2018-12-18T11:09:37.877Z,4484.00
2018-12-18T11:10:37.874Z,4588.00
2018-12-18T11:11:37.859Z,4664.00
2018-12-18T11:12:37.845Z,4692.00
2018-12-18T11:13:37.870Z,4752.00
2018-12-18T11:14:37.849Z,4808.00
2018-12-18T11:15:37.817Z,4856.00
2018-12-18T11:16:37.802Z,4904.00
2018-12-18T11:17:37.799Z,4964.00
2018-12-18T11:18:37.785Z,4984.00
2018-12-18T11:19:37.773Z,5020.00
2018-12-18T11:20:37.784Z,5044.00
2018-12-18T11:21:37.762Z,5032.00
2018-12-18T11:22:37.744Z,5004.00
2018-12-18T11:23:37.727Z,5024.00
2018-12-18T11:24:37.714Z,5060.00
2018-12-18T11:25:37.730Z,5128.00
2018-12-18T11:26:37.711Z,5152.00
2018-12-18T11:27:37.687Z,5204.00
2018-12-18T11:28:37.678Z,5236.00
2018-12-18T11:29:37.662Z,5256.00
2018-12-18T11:30:37.697Z,5308.00
2018-12-18T11:31:37.644Z,5392.00
2018-12-18T11:32:37.633Z,5420.00
2018-12-18T11:33:37.616Z,5476.00
2018-12-18T11:34:37.608Z,5484.00
2018-12-18T11:35:37.615Z,5556.00
2018-12-18T11:36:37.585Z,5664.00
2018-12-18T11:37:37.579Z,5760.00
2018-12-18T11:38:37.566Z,5800.00
2018-12-18T11:39:37.555Z,5932.00
2018-12-18T11:40:37.567Z,6000.00
2018-12-18T11:41:37.528Z,6024.00
2018-12-18T11:42:37.525Z,6056.00
2018-12-18T11:43:37.511Z,6064.00
2018-12-18T11:44:37.512Z,6064.00
2018-12-18T11:45:37.491Z,6100.00
2018-12-18T11:46:37.479Z,6116.00
2018-12-18T11:47:37.466Z,6164.00
2018-12-18T11:48:37.452Z,6220.00
2018-12-18T11:49:37.475Z,6264.00
2018-12-18T11:50:37.434Z,6312.00
2018-12-18T11:51:37.425Z,6284.00
2018-12-18T11:52:37.415Z,6372.00
2018-12-18T11:53:37.401Z,6432.00
2018-12-18T11:54:37.407Z,6456.00
2018-12-18T11:55:37.377Z,6508.00
2018-12-18T11:56:37.364Z,6540.00
2018-12-18T11:57:37.360Z,6600.00
2018-12-18T11:58:37.373Z,6636.00
2018-12-18T11:59:37.346Z,6696.00
2018-12-18T12:00:37.327Z,6728.00
2018-12-18T12:01:37.326Z,6772.00
2018-12-18T12:02:42.719Z,6852.00
2018-12-18T12:03:38.321Z,6892.00
2018-12-18T12:04:37.276Z,6936.00
2018-12-18T12:05:38.128Z,6992.00
2018-12-18T12:06:37.267Z,7000.00
2018-12-18T12:07:37.244Z,7024.00
2018-12-18T12:08:37.238Z,7016.00
2018-12-18T12:09:37.274Z,7024.00
2018-12-18T12:10:37.230Z,6996.00
2018-12-18T12:11:37.200Z,7040.00
2018-12-18T12:12:37.201Z,7040.00
2018-12-18T12:13:37.179Z,7048.00
2018-12-18T12:14:37.185Z,7032.00
2018-12-18T12:15:37.219Z,7000.00
2018-12-18T12:16:37.146Z,6940.00
2018-12-18T12:17:37.134Z,6948.00
2018-12-18T12:18:37.129Z,6916.00
2018-12-18T12:19:37.174Z,6848.00
2018-12-18T12:20:37.119Z,6832.00
2018-12-18T12:21:37.091Z,6776.00
2018-12-18T12:22:37.086Z,6820.00
2018-12-18T12:23:37.071Z,6780.00
2018-12-18T12:24:37.081Z,6768.00
2018-12-18T12:25:37.047Z,6704.00
2018-12-18T12:26:37.043Z,6748.00
2018-12-18T12:27:37.026Z,6720.00
2018-12-18T12:28:37.014Z,6716.00
2018-12-18T12:29:37.023Z,6644.00
2018-12-18T12:30:37.008Z,6672.00
2018-12-18T12:31:36.982Z,6584.00
2018-12-18T12:32:36.971Z,6580.00
2018-12-18T12:33:36.960Z,6540.00
2018-12-18T12:34:36.948Z,6472.00
2018-12-18T12:35:36.957Z,6396.00
2018-12-18T12:36:36.927Z,6368.00
2018-12-18T12:37:36.918Z,6336.00
2018-12-18T12:38:36.905Z,6308.00
2018-12-18T12:39:36.895Z,6316.00
2018-12-18T12:40:36.901Z,6288.00
2018-12-18T12:41:36.874Z,6264.00
2018-12-18T12:42:36.888Z,6260.00
2018-12-18T12:43:36.856Z,6272.00
2018-12-18T12:44:36.838Z,6248.00
2018-12-18T12:45:36.860Z,6240.00
2018-12-18T12:46:36.819Z,6220.00